Time;durP1;ratioP1;P1;durP2;ratioP2;P2;SDS_P1;SDS_P2;PMS_P1;PMS_P2;Temp;Humidity;BMP_temperature;BMP_pressure;BME280_temperature;BME280_humidity;BME280_pressure;Samples;Min_cycle;Max_cycle;Signal;HPM_P1;HPM_P2
2022/12/07 00:02:08;;;;;;;17.13;2.28;;;3.70;99.90;;;;;;6180459;23;20021;-82
2022/12/07 00:04:34;;;;;;;15.45;1.67;;;3.90;99.90;;;;;;6156894;23;20027;-82
2022/12/07 00:07:00;;;;;;;18.88;1.85;;;3.70;99.90;;;;;;6192692;23;20020;-82
2022/12/07 00:09:25;;;;;;;12.45;1.60;;;3.50;99.90;;;;;;6187524;23;20039;-82
2022/12/07 00:11:51;;;;;;;10.88;1.65;;;3.80;99.90;;;;;;6211411;23;20023;-82
2022/12/07 00:14:18;;;;;;;11.05;1.40;;;4.30;99.90;;;;;;6211408;23;20020;-82
2022/12/07 00:16:44;;;;;;;12.35;1.60;;;4.30;99.90;;;;;;6186944;23;20020;-82
2022/12/07 00:19:12;;;;;;;22.00;1.63;;;4.10;99.90;;;;;;6184492;23;20070;-82
2022/12/07 00:21:38;;;;;;;14.27;2.40;;;4.20;99.90;;;;;;6212400;23;20383;-82
2022/12/07 00:24:04;;;;;;;18.67;1.50;;;3.90;99.90;;;;;;6238576;23;20091;-82
2022/12/07 00:26:33;;;;;;;12.88;1.38;;;3.40;99.90;;;;;;6211613;23;20413;-82
2022/12/07 00:29:02;;;;;;;10.98;1.70;;;3.60;99.90;;;;;;6211475;23;20024;-82
2022/12/07 00:31:31;;;;;;;15.48;1.73;;;3.30;99.90;;;;;;6212286;23;20091;-82
2022/12/07 00:33:58;;;;;;;11.25;1.48;;;3.30;99.90;;;;;;6210233;23;20020;-82
2022/12/07 00:36:24;;;;;;;10.35;1.90;;;3.80;99.90;;;;;;6212826;23;20023;-82
2022/12/07 00:38:50;;;;;;;11.18;1.88;;;3.90;99.90;;;;;;6212049;23;20032;-82
2022/12/07 00:41:19;;;;;;;11.00;1.73;;;3.40;99.90;;;;;;6210245;23;20905;-82
2022/12/07 00:43:46;;;;;;;11.05;1.60;;;3.50;99.90;;;;;;6212125;23;20028;-82
2022/12/07 00:46:13;;;;;;;16.25;1.73;;;3.80;99.90;;;;;;6212037;23;20105;-82
2022/12/07 00:48:39;;;;;;;12.57;1.17;;;4.40;99.90;;;;;;6237857;23;20098;-82
2022/12/07 00:51:05;;;;;;;11.93;1.60;;;4.10;99.90;;;;;;6235678;23;20012;-82
2022/12/07 00:53:33;;;;;;;12.00;1.40;;;3.60;99.90;;;;;;6211618;23;20028;-82
2022/12/07 00:56:05;;;;;;;14.27;1.98;;;4.50;99.90;;;;;;6211453;23;20085;-82
2022/12/07 00:58:31;;;;;;;10.63;1.25;;;3.70;99.90;;;;;;6239348;23;20046;-82
2022/12/07 01:01:01;;;;;;;15.88;1.63;;;4.40;99.90;;;;;;6210685;23;20433;-81
2022/12/07 01:03:27;;;;;;;11.00;1.65;;;4.70;99.90;;;;;;6211654;23;20775;-82
2022/12/07 01:05:55;;;;;;;7.20;1.05;;;4.50;99.90;;;;;;6239374;23;20016;-82
2022/12/07 01:08:22;;;;;;;10.40;1.17;;;3.90;99.90;;;;;;6181083;23;20051;-82
2022/12/07 01:10:48;;;;;;;6.50;0.88;;;5.00;99.90;;;;;;6182054;23;20103;-82
2022/12/07 01:13:14;;;;;;;6.40;0.90;;;4.80;99.90;;;;;;6207792;23;20024;-82
2022/12/07 01:15:42;;;;;;;12.00;1.13;;;4.60;99.90;;;;;;6181477;23;20021;-82
2022/12/07 01:18:08;;;;;;;13.52;1.27;;;4.20;99.90;;;;;;6181656;23;20021;-82
2022/12/07 01:20:33;;;;;;;10.88;1.27;;;4.60;99.90;;;;;;6183827;23;20012;-82
2022/12/07 01:22:59;;;;;;;6.65;1.15;;;4.50;99.90;;;;;;6181955;23;20380;-82
2022/12/07 01:25:25;;;;;;;13.13;1.17;;;3.90;99.90;;;;;;6183519;23;20464;-82
2022/12/07 01:27:50;;;;;;;10.13;1.45;;;3.50;99.90;;;;;;6183010;23;20016;-82
2022/12/07 01:30:16;;;;;;;7.72;1.20;;;4.50;99.90;;;;;;6182238;23;20021;-82
2022/12/07 01:32:42;;;;;;;9.95;1.48;;;3.80;99.90;;;;;;6182309;23;20021;-82
2022/12/07 01:35:08;;;;;;;11.95;1.38;;;3.70;99.90;;;;;;6182981;23;20344;-82
2022/12/07 01:37:36;;;;;;;9.52;1.50;;;4.30;99.90;;;;;;6181934;23;20020;-82
2022/12/07 01:40:04;;;;;;;7.55;0.85;;;4.50;99.90;;;;;;6182723;23;20087;-82
2022/12/07 01:42:29;;;;;;;10.15;1.23;;;3.80;99.90;;;;;;6183275;23;20020;-82
2022/12/07 01:45:33;;;;;;;10.73;1.02;;;4.60;99.90;;;;;;6182385;23;20009;-82
2022/12/07 01:47:59;;;;;;;;;;;4.00;99.90;;;;;;6182444;23;20263;-82
2022/12/07 01:50:28;;;;;;;11.98;0.90;;;4.50;99.90;;;;;;6182602;23;19916;-83
2022/12/07 01:52:57;;;;;;;11.43;0.98;;;5.00;99.90;;;;;;6182554;23;20020;-83
2022/12/07 01:55:23;;;;;;;11.40;1.27;;;4.10;99.90;;;;;;6184251;23;20021;-82
2022/12/07 01:57:52;;;;;;;13.05;1.70;;;4.00;99.90;;;;;;6181756;23;20017;-82
2022/12/07 02:00:18;;;;;;;11.18;1.50;;;3.90;99.90;;;;;;6158358;23;20332;-82
2022/12/07 02:02:48;;;;;;;15.00;1.48;;;3.90;99.90;;;;;;6206970;23;20091;-81
2022/12/07 02:05:15;;;;;;;9.00;1.08;;;3.90;99.90;;;;;;6152849;23;20024;-81
2022/12/07 02:07:41;;;;;;;11.48;1.20;;;4.00;99.90;;;;;;6202788;23;20066;-82
2022/12/07 02:10:18;;;;;;;11.10;1.20;;;4.60;99.90;;;;;;6213108;23;20024;-82
2022/12/07 02:12:46;;;;;;;11.38;1.15;;;3.70;99.90;;;;;;6211557;23;20012;-82
2022/12/07 02:15:13;;;;;;;14.10;2.45;;;4.30;99.90;;;;;;6213166;23;20057;-82
2022/12/07 02:17:54;;;;;;;7.65;0.90;;;4.20;99.90;;;;;;6212514;23;20289;-81
2022/12/07 02:20:32;;;;;;;10.05;1.35;;;3.40;99.90;;;;;;6238554;23;20020;-82
2022/12/07 02:23:19;;;;;;;12.15;1.00;;;3.80;99.90;;;;;;6239135;23;20008;-82
2022/12/07 02:26:06;;;;;;;6.10;0.73;;;3.20;99.90;;;;;;6211306;23;20031;-82
2022/12/07 02:28:36;;;;;;;8.60;1.35;;;3.00;99.90;;;;;;6188117;23;20023;-82
2022/12/07 02:31:15;;;;;;;10.93;0.90;;;3.60;99.90;;;;;;6237145;23;20016;-82
2022/12/07 02:33:46;;;;;;;10.13;0.98;;;2.70;99.90;;;;;;6212258;23;20521;-81
2022/12/07 02:36:18;;;;;;;10.02;1.20;;;2.60;99.90;;;;;;6211737;23;20441;-82
2022/12/07 02:39:05;;;;;;;14.27;1.40;;;2.60;99.90;;;;;;6212585;23;20506;-81
2022/12/07 02:41:43;;;;;;;13.55;1.05;;;2.60;99.90;;;;;;6239394;23;20028;-82
2022/12/07 02:44:12;;;;;;;11.68;0.98;;;2.50;99.90;;;;;;6211618;23;20016;-81
2022/12/07 02:46:44;;;;;;;13.13;1.40;;;2.50;99.90;;;;;;6239487;23;20047;-82
2022/12/07 02:49:11;;;;;;;14.90;1.55;;;3.20;99.90;;;;;;6211566;23;20130;-82
2022/12/07 02:51:42;;;;;;;18.23;2.55;;;2.70;99.90;;;;;;6213005;23;20027;-81
2022/12/07 02:54:14;;;;;;;15.57;1.60;;;3.90;99.90;;;;;;6211293;23;20078;-81
2022/12/07 02:56:41;;;;;;;13.63;1.65;;;2.80;99.90;;;;;;6240262;23;20364;-82
2022/12/07 02:59:27;;;;;;;22.35;2.05;;;3.10;99.90;;;;;;6239003;23;20078;-82
2022/12/07 03:02:04;;;;;;;16.90;1.45;;;3.20;99.90;;;;;;6211658;23;20079;-82
2022/12/07 03:04:34;;;;;;;12.20;1.50;;;3.30;99.90;;;;;;6211362;23;20055;-82
2022/12/07 03:07:11;;;;;;;11.85;1.30;;;3.40;99.90;;;;;;6212137;23;20345;-82
2022/12/07 03:09:45;;;;;;;9.50;1.17;;;3.90;99.90;;;;;;6212540;23;20028;-82
2022/12/07 03:12:18;;;;;;;14.70;1.30;;;4.30;99.90;;;;;;6212322;23;20012;-81
2022/12/07 03:14:59;;;;;;;12.13;1.38;;;4.50;99.90;;;;;;6210632;23;20058;-82
2022/12/07 03:17:27;;;;;;;14.02;1.60;;;3.60;99.90;;;;;;6187654;23;20012;-81
2022/12/07 03:19:57;;;;;;;11.45;1.10;;;4.50;99.90;;;;;;6211593;23;20016;-82
2022/12/07 03:22:23;;;;;;;12.27;1.98;;;4.20;99.90;;;;;;6186263;23;20083;-82
2022/12/07 03:24:55;;;;;;;10.57;1.25;;;4.00;99.90;;;;;;6211892;23;20039;-82
2022/12/07 03:27:25;;;;;;;14.63;2.08;;;4.40;99.90;;;;;;6211841;23;20338;-82
2022/12/07 03:30:03;;;;;;;12.05;1.17;;;4.60;99.90;;;;;;6210852;23;20059;-82
2022/12/07 03:32:36;;;;;;;11.35;1.25;;;4.20;99.90;;;;;;6187471;23;20053;-82
2022/12/07 03:35:10;;;;;;;11.38;0.80;;;4.10;99.90;;;;;;6237789;23;20020;-82
2022/12/07 03:37:42;;;;;;;9.65;1.20;;;3.60;99.90;;;;;;6238577;23;20044;-82
2022/12/07 03:40:17;;;;;;;10.05;1.23;;;4.20;99.90;;;;;;6211559;23;20076;-82
2022/12/07 03:42:43;;;;;;;11.15;1.20;;;3.60;99.90;;;;;;6211160;23;20062;-82
2022/12/07 03:45:11;;;;;;;12.63;1.30;;;4.20;99.90;;;;;;6212106;23;20013;-82
2022/12/07 03:47:51;;;;;;;13.55;0.80;;;4.40;99.90;;;;;;6239253;23;20063;-81
2022/12/07 03:50:38;;;;;;;12.00;1.33;;;3.70;99.90;;;;;;6209719;23;20027;-82
2022/12/07 03:53:11;;;;;;;9.93;1.13;;;3.70;99.90;;;;;;6211253;23;20501;-82
2022/12/07 03:55:41;;;;;;;11.70;1.40;;;4.30;99.90;;;;;;6239455;23;20070;-82
2022/12/07 03:58:12;;;;;;;6.82;0.82;;;4.60;99.90;;;;;;6238120;23;20027;-81
2022/12/07 04:00:40;;;;;;;8.18;1.13;;;4.30;99.90;;;;;;6211504;23;20073;-81
2022/12/07 04:03:05;;;;;;;8.40;0.75;;;3.70;99.90;;;;;;6211688;23;20081;-82
2022/12/07 04:05:31;;;;;;;11.38;1.67;;;4.20;99.90;;;;;;6210242;23;20428;-82
2022/12/07 04:07:57;;;;;;;10.32;0.90;;;3.60;99.90;;;;;;6213697;23;20399;-82
2022/12/07 04:10:22;;;;;;;9.40;1.00;;;4.30;99.90;;;;;;6182039;23;20021;-81
2022/12/07 04:12:48;;;;;;;11.18;1.13;;;4.30;99.90;;;;;;6207957;23;20020;-82
2022/12/07 04:15:14;;;;;;;5.32;0.65;;;4.50;99.90;;;;;;6181633;23;20435;-82
2022/12/07 04:17:40;;;;;;;6.93;0.70;;;3.30;99.90;;;;;;6156830;23;20345;-82
2022/12/07 04:20:06;;;;;;;12.20;1.10;;;4.10;99.90;;;;;;6179762;23;20062;-81
2022/12/07 04:22:32;;;;;;;5.35;0.57;;;3.10;99.90;;;;;;6182311;23;20033;-81
2022/12/07 04:24:57;;;;;;;8.35;0.98;;;4.40;99.90;;;;;;6180552;23;20021;-82
2022/12/07 04:27:23;;;;;;;10.77;1.05;;;3.70;99.90;;;;;;6182235;23;20023;-81
2022/12/07 04:29:49;;;;;;;11.27;1.38;;;3.40;99.90;;;;;;6182071;23;20027;-82
2022/12/07 04:32:14;;;;;;;13.00;0.88;;;3.10;99.90;;;;;;6206991;23;20017;-81
2022/12/07 04:34:40;;;;;;;9.02;1.13;;;3.80;99.90;;;;;;6156483;23;20091;-81
2022/12/07 04:37:06;;;;;;;12.45;0.90;;;4.00;99.90;;;;;;6181104;23;20110;-82
2022/12/07 04:39:32;;;;;;;11.45;1.10;;;3.40;99.90;;;;;;6181126;23;20013;-82
2022/12/07 04:41:59;;;;;;;7.03;0.80;;;3.90;99.90;;;;;;6181513;23;20046;-82
2022/12/07 04:44:26;;;;;;;6.00;0.90;;;3.80;99.90;;;;;;6156380;23;20051;-82
2022/12/07 04:46:53;;;;;;;7.90;1.08;;;3.70;99.90;;;;;;6181080;23;20024;-83
2022/12/07 04:49:19;;;;;;;10.48;1.13;;;4.50;99.90;;;;;;6180526;23;20024;-82
2022/12/07 04:51:45;;;;;;;6.65;0.90;;;4.10;99.90;;;;;;6182472;23;20344;-82
2022/12/07 04:54:12;;;;;;;8.98;0.98;;;4.40;99.90;;;;;;6157492;23;20392;-82
2022/12/07 04:56:38;;;;;;;10.90;1.38;;;3.90;99.90;;;;;;6159187;23;20024;-82
2022/12/07 04:59:05;;;;;;;12.48;1.13;;;4.10;99.90;;;;;;6183446;23;20043;-81
2022/12/07 05:01:31;;;;;;;10.32;1.10;;;3.80;99.90;;;;;;6183099;23;20032;-81
2022/12/07 05:03:57;;;;;;;10.68;1.15;;;3.10;99.90;;;;;;6183317;23;20406;-81
2022/12/07 05:06:23;;;;;;;5.43;0.73;;;3.70;99.90;;;;;;6180942;22;20051;-82
2022/12/07 05:08:49;;;;;;;12.65;1.17;;;4.10;99.90;;;;;;6208308;23;20056;-82
2022/12/07 05:11:44;;;;;;;6.32;0.88;;;3.30;99.90;;;;;;6210620;23;20013;-82
2022/12/07 05:14:03;;;;;;;12.65;0.80;;;3.30;99.90;;;;;;6181274;23;20325;-82
2022/12/07 05:16:29;;;;;;;6.95;0.80;;;3.20;99.90;;;;;;6210359;23;20013;-82
2022/12/07 05:18:55;;;;;;;11.00;1.25;;;2.90;99.90;;;;;;6183136;23;20406;-82
2022/12/07 05:21:21;;;;;;;10.75;0.85;;;2.80;99.90;;;;;;6181407;23;20052;-82
2022/12/07 05:23:47;;;;;;;8.73;0.80;;;3.50;99.90;;;;;;6183631;23;20021;-82
2022/12/07 05:26:13;;;;;;;4.90;0.75;;;3.00;99.90;;;;;;6157640;23;20032;-82
2022/12/07 05:28:38;;;;;;;10.88;1.13;;;3.00;99.90;;;;;;6182958;23;20025;-82
2022/12/07 05:31:04;;;;;;;10.20;0.85;;;2.90;99.90;;;;;;6182339;23;20060;-82
2022/12/07 05:33:30;;;;;;;6.55;0.60;;;1.90;99.90;;;;;;6183463;23;20016;-82
2022/12/07 05:35:55;;;;;;;7.30;1.10;;;2.50;99.90;;;;;;6181011;23;20091;-82
2022/12/07 05:38:21;;;;;;;11.68;1.15;;;1.80;99.90;;;;;;6183531;23;20023;-82
2022/12/07 05:40:47;;;;;;;8.55;1.17;;;2.90;99.90;;;;;;6157882;23;20437;-82
2022/12/07 05:43:12;;;;;;;8.07;0.90;;;1.60;99.90;;;;;;6157401;23;20020;-82
2022/12/07 05:45:38;;;;;;;10.32;1.25;;;2.40;99.90;;;;;;6183569;23;20107;-82
2022/12/07 05:48:04;;;;;;;6.07;1.02;;;2.30;99.90;;;;;;6183010;23;20029;-82
2022/12/07 05:50:29;;;;;;;8.57;1.10;;;1.70;99.90;;;;;;6208588;23;20105;-82
2022/12/07 05:52:55;;;;;;;10.50;0.80;;;2.70;99.90;;;;;;6183270;23;20024;-82
2022/12/07 05:55:21;;;;;;;17.95;2.10;;;2.40;99.90;;;;;;6182706;23;20095;-82
2022/12/07 06:00:31;;;;;;;9.98;1.02;;;2.60;99.90;;;;;;6182279;23;20031;-83
2022/12/07 06:02:57;;;;;;;10.70;1.15;;;1.00;99.90;;;;;;6182652;23;20092;-82
2022/12/07 06:05:22;;;;;;;13.20;1.52;;;1.70;99.90;;;;;;6156329;23;20051;-82
2022/12/07 06:07:48;;;;;;;12.60;1.20;;;1.70;99.90;;;;;;6205023;23;20083;-82
2022/12/07 06:10:14;;;;;;;14.60;1.88;;;1.90;99.90;;;;;;6211668;23;20016;-82
2022/12/07 06:12:42;;;;;;;13.52;1.45;;;1.90;99.90;;;;;;6213040;23;20040;-82
2022/12/07 06:15:09;;;;;;;18.90;1.67;;;1.20;99.90;;;;;;6212481;23;20020;-82
2022/12/07 06:17:35;;;;;;;11.13;1.20;;;1.90;99.90;;;;;;6238754;23;20016;-83
2022/12/07 06:20:01;;;;;;;19.30;2.13;;;2.00;99.90;;;;;;6187231;23;20318;-82
2022/12/07 06:22:26;;;;;;;13.65;1.42;;;2.80;99.90;;;;;;6240499;23;20016;-83
2022/12/07 06:24:52;;;;;;;9.45;1.40;;;3.00;99.90;;;;;;6187405;23;20332;-82
2022/12/07 06:27:18;;;;;;;19.70;1.83;;;2.50;99.90;;;;;;6213115;23;20047;-82
2022/12/07 06:29:44;;;;;;;11.82;1.27;;;2.90;99.90;;;;;;6212545;23;20074;-83
2022/12/07 06:32:09;;;;;;;11.88;1.17;;;3.60;99.90;;;;;;6212269;23;20020;-83
2022/12/07 06:34:35;;;;;;;17.10;1.67;;;3.10;99.90;;;;;;6186820;23;20016;-83
2022/12/07 06:37:01;;;;;;;15.23;1.30;;;2.60;99.90;;;;;;6212463;23;20032;-83
2022/12/07 06:39:28;;;;;;;15.55;1.20;;;3.40;99.90;;;;;;6187075;23;20397;-83
2022/12/07 06:41:54;;;;;;;13.82;1.92;;;3.30;99.90;;;;;;6212827;23;20027;-82
2022/12/07 06:44:21;;;;;;;12.35;1.27;;;3.50;99.90;;;;;;6212831;23;20039;-83
2022/12/07 06:46:47;;;;;;;9.30;1.55;;;2.90;99.90;;;;;;6211413;23;20451;-82
2022/12/07 06:49:13;;;;;;;6.10;1.33;;;2.50;99.90;;;;;;6211788;23;20103;-82
2022/12/07 06:51:41;;;;;;;11.85;1.63;;;3.20;99.90;;;;;;6213090;23;20050;-83
2022/12/07 06:54:12;;;;;;;10.90;0.85;;;2.30;99.90;;;;;;6211111;23;20393;-82
2022/12/07 06:56:38;;;;;;;10.68;1.83;;;2.70;99.90;;;;;;6212848;23;20052;-83
2022/12/07 06:59:06;;;;;;;9.55;0.90;;;2.20;99.90;;;;;;6212178;23;20027;-82
2022/12/07 07:01:32;;;;;;;10.45;1.50;;;3.20;99.90;;;;;;6212274;23;20020;-83
2022/12/07 07:03:59;;;;;;;14.57;1.10;;;3.30;99.90;;;;;;6211680;23;20012;-82
2022/12/07 07:06:25;;;;;;;10.57;1.60;;;3.10;99.90;;;;;;6180616;23;20410;-83
2022/12/07 07:08:50;;;;;;;12.32;1.30;;;1.50;99.90;;;;;;6181516;23;20029;-83
2022/12/07 07:11:16;;;;;;;8.40;0.93;;;2.30;99.90;;;;;;6182310;23;20488;-83
2022/12/07 07:13:42;;;;;;;10.38;1.25;;;2.30;99.90;;;;;;6157211;23;20023;-83
2022/12/07 07:16:08;;;;;;;10.70;1.52;;;2.50;99.90;;;;;;6155830;23;20044;-82
2022/12/07 07:18:34;;;;;;;12.18;1.50;;;3.90;99.90;;;;;;6182553;23;20013;-84
2022/12/07 07:21:00;;;;;;;12.13;2.00;;;3.20;99.90;;;;;;6154493;23;20095;-84
2022/12/07 07:23:26;;;;;;;10.13;1.42;;;3.40;99.90;;;;;;6182727;23;20052;-83
2022/12/07 07:25:52;;;;;;;9.95;1.40;;;2.70;99.90;;;;;;6181751;23;20023;-83
2022/12/07 07:28:18;;;;;;;9.23;1.27;;;2.80;99.90;;;;;;6180746;23;20020;-83
2022/12/07 07:30:44;;;;;;;13.77;1.08;;;2.80;99.90;;;;;;6181683;23;20017;-83
2022/12/07 07:33:11;;;;;;;9.80;1.15;;;3.60;99.90;;;;;;6181940;23;20051;-83
2022/12/07 07:35:37;;;;;;;12.55;1.58;;;4.00;99.90;;;;;;6180392;23;20024;-83
2022/12/07 07:38:03;;;;;;;9.88;0.93;;;3.70;99.90;;;;;;6181728;23;20477;-82
2022/12/07 07:40:29;;;;;;;10.10;1.45;;;3.90;99.90;;;;;;6157199;23;20031;-83
2022/12/07 07:42:56;;;;;;;6.03;0.73;;;3.20;99.90;;;;;;6181397;23;20070;-83
2022/12/07 07:45:23;;;;;;;9.85;1.10;;;4.30;99.90;;;;;;6156703;23;20017;-82
2022/12/07 07:47:49;;;;;;;7.72;1.33;;;4.20;99.90;;;;;;6181652;23;20467;-83
2022/12/07 07:50:16;;;;;;;7.10;1.33;;;3.30;99.90;;;;;;6179082;23;20416;-82
2022/12/07 07:52:42;;;;;;;12.10;2.35;;;3.00;99.90;;;;;;6182655;23;20021;-85
2022/12/07 07:55:09;;;;;;;7.72;1.25;;;3.70;99.90;;;;;;6181199;23;20081;-83
2022/12/07 07:57:36;;;;;;;9.05;0.80;;;3.80;99.90;;;;;;6179911;23;20009;-83
2022/12/07 08:00:05;;;;;;;8.73;1.77;;;4.10;99.90;;;;;;6180710;23;20055;-82
2022/12/07 08:02:31;;;;;;;8.93;1.17;;;3.00;99.90;;;;;;6181736;23;20012;-83
2022/12/07 08:04:57;;;;;;;10.73;1.35;;;2.90;99.90;;;;;;6206969;23;20035;-82
2022/12/07 08:07:22;;;;;;;6.75;1.05;;;4.00;99.90;;;;;;6157001;23;20025;-83
2022/12/07 08:09:48;;;;;;;9.18;1.05;;;2.70;99.90;;;;;;6181181;23;20491;-83
2022/12/07 08:12:14;;;;;;;10.43;1.35;;;2.90;99.90;;;;;;6156877;23;20016;-82
2022/12/07 08:14:39;;;;;;;8.95;1.15;;;3.50;99.90;;;;;;6181785;23;20024;-82
2022/12/07 08:17:05;;;;;;;7.75;1.40;;;3.90;99.90;;;;;;6155885;23;20429;-83
2022/12/07 08:19:31;;;;;;;10.23;1.48;;;2.70;99.90;;;;;;6180896;23;20102;-83
2022/12/07 08:21:57;;;;;;;13.45;1.35;;;2.60;99.90;;;;;;6181658;23;20449;-83
2022/12/07 08:24:24;;;;;;;8.80;1.45;;;3.10;99.90;;;;;;6181260;23;20048;-83
2022/12/07 08:26:50;;;;;;;10.05;1.60;;;2.40;99.90;;;;;;6182488;23;20025;-83
2022/12/07 08:29:16;;;;;;;9.77;1.52;;;2.30;99.90;;;;;;6183781;23;20446;-83
2022/12/07 08:31:42;;;;;;;15.27;2.08;;;2.90;99.90;;;;;;6182779;23;20013;-84
2022/12/07 08:34:10;;;;;;;15.35;2.67;;;2.70;99.90;;;;;;6183339;23;20029;-82
2022/12/07 08:36:36;;;;;;;14.52;2.55;;;2.40;99.90;;;;;;6183438;23;20020;-82
2022/12/07 08:39:03;;;;;;;22.77;2.40;;;3.20;99.90;;;;;;6157696;23;20016;-83
2022/12/07 08:41:28;;;;;;;9.60;1.35;;;2.40;99.90;;;;;;6184284;23;20096;-82
2022/12/07 08:43:54;;;;;;;12.57;2.28;;;2.60;99.90;;;;;;6182980;23;20051;-83
2022/12/07 08:46:27;;;;;;;21.77;2.30;;;2.70;99.90;;;;;;6209205;23;20399;-83
2022/12/07 08:48:54;;;;;;;11.48;1.52;;;2.90;99.90;;;;;;6182687;23;20024;-83
2022/12/07 08:51:21;;;;;;;8.85;1.42;;;4.00;99.90;;;;;;6182785;23;20102;-83
2022/12/07 08:53:48;;;;;;;15.02;1.75;;;4.20;99.90;;;;;;6208254;23;20328;-83
2022/12/07 08:56:16;;;;;;;16.40;1.98;;;3.90;99.90;;;;;;6182852;23;20005;-86
2022/12/07 08:58:42;;;;;;;11.77;1.90;;;4.40;99.90;;;;;;6182882;23;20035;-83
2022/12/07 09:01:08;;;;;;;22.42;1.50;;;3.30;99.90;;;;;;6181526;23;20381;-83
2022/12/07 09:03:34;;;;;;;9.45;1.35;;;3.50;99.90;;;;;;6183716;23;20032;-83
2022/12/07 09:06:00;;;;;;;12.70;1.52;;;3.80;99.90;;;;;;6179609;23;20106;-82
2022/12/07 09:08:32;;;;;;;9.02;1.63;;;3.20;99.90;;;;;;6212534;23;20483;-83
2022/12/07 09:10:57;;;;;;;8.43;1.40;;;4.30;99.90;;;;;;6212443;23;20031;-83
2022/12/07 09:13:23;;;;;;;7.45;1.08;;;3.70;99.90;;;;;;6213342;23;20024;-82
2022/12/07 09:15:49;;;;;;;10.75;2.03;;;3.80;99.90;;;;;;6211885;23;20009;-83
2022/12/07 09:18:14;;;;;;;10.10;1.25;;;4.60;99.90;;;;;;6188232;23;20095;-83
2022/12/07 09:20:40;;;;;;;15.27;1.80;;;4.80;99.90;;;;;;6212297;23;20024;-83
2022/12/07 09:23:07;;;;;;;16.00;1.25;;;4.40;99.90;;;;;;6212644;23;20020;-83
2022/12/07 09:25:33;;;;;;;10.85;1.83;;;4.20;99.90;;;;;;6213599;23;20048;-83
2022/12/07 09:27:59;;;;;;;7.47;1.20;;;4.90;99.90;;;;;;6211864;23;20098;-83
2022/12/07 09:30:26;;;;;;;11.52;1.60;;;4.60;99.90;;;;;;6213899;23;20121;-82
2022/12/07 09:32:54;;;;;;;10.90;1.38;;;4.30;99.90;;;;;;6213206;23;20325;-83
2022/12/07 09:35:20;;;;;;;10.48;1.70;;;3.80;99.90;;;;;;6211937;23;20322;-82
2022/12/07 09:37:46;;;;;;;8.55;1.00;;;4.50;99.90;;;;;;6213155;23;20047;-83
2022/12/07 09:40:13;;;;;;;9.88;1.40;;;5.70;99.90;;;;;;6213123;23;20091;-82
2022/12/07 09:42:44;;;;;;;12.02;1.50;;;4.60;99.90;;;;;;6212966;23;20032;-83
2022/12/07 09:45:15;;;;;;;9.50;1.00;;;5.70;99.90;;;;;;6212055;23;20035;-83
2022/12/07 09:47:41;;;;;;;7.78;1.58;;;4.70;99.90;;;;;;6213402;23;20058;-83
2022/12/07 09:50:13;;;;;;;16.02;1.33;;;5.70;99.90;;;;;;6210373;23;20012;-82
2022/12/07 09:52:40;;;;;;;7.50;1.15;;;4.70;99.90;;;;;;6188408;23;20024;-82
2022/12/07 09:55:12;;;;;;;9.38;1.15;;;4.80;99.90;;;;;;6211549;23;20087;-83
2022/12/07 09:57:39;;;;;;;8.25;0.93;;;5.90;99.90;;;;;;6214054;23;20032;-83
2022/12/07 10:00:12;;;;;;;11.77;1.05;;;4.90;99.90;;;;;;6239847;23;20066;-83
2022/12/07 10:02:42;;;;;;;7.50;1.13;;;5.00;99.90;;;;;;6212289;23;20020;-83
2022/12/07 10:05:15;;;;;;;10.52;1.10;;;5.80;99.90;;;;;;6211700;23;20050;-82
2022/12/07 10:07:41;;;;;;;8.70;0.63;;;5.90;99.90;;;;;;6187912;23;20026;-83
2022/12/07 10:10:14;;;;;;;6.80;1.08;;;5.60;99.90;;;;;;6211753;23;20012;-83
2022/12/07 10:12:54;;;;;;;9.25;1.15;;;5.60;99.90;;;;;;6213346;23;20020;-83
2022/12/07 10:15:19;;;;;;;10.40;1.17;;;5.00;99.90;;;;;;6239724;23;20016;-82
2022/12/07 10:17:51;;;;;;;14.50;1.40;;;5.00;99.90;;;;;;6238160;23;20137;-83
2022/12/07 10:20:21;;;;;;;6.60;1.05;;;5.60;99.90;;;;;;6211043;23;20496;-83
2022/12/07 10:22:55;;;;;;;8.10;1.20;;;5.70;99.90;;;;;;6213950;23;20024;-83
2022/12/07 10:25:22;;;;;;;4.78;0.73;;;5.10;99.90;;;;;;6239022;23;20506;-83
2022/12/07 10:28:02;;;;;;;11.18;1.20;;;5.10;99.90;;;;;;6213281;23;20337;-83
2022/12/07 10:30:28;;;;;;;14.68;1.48;;;5.70;99.90;;;;;;6212510;23;20020;-83
2022/12/07 10:32:54;;;;;;;16.85;1.55;;;5.10;99.90;;;;;;6187711;23;20249;-83
2022/12/07 10:35:24;;;;;;;9.40;1.60;;;5.20;99.90;;;;;;6212175;23;20020;-83
2022/12/07 10:37:51;;;;;;;9.02;1.05;;;5.20;99.90;;;;;;6211229;23;20023;-83
2022/12/07 10:40:27;;;;;;;11.75;1.42;;;5.60;99.90;;;;;;6212681;23;20027;-83
2022/12/07 10:43:13;;;;;;;9.27;1.30;;;5.20;99.90;;;;;;6238577;23;20310;-83
2022/12/07 10:45:49;;;;;;;14.25;1.45;;;5.50;99.90;;;;;;6211762;23;20016;-83
2022/12/07 10:48:28;;;;;;;9.00;1.48;;;5.30;99.90;;;;;;6212087;23;20486;-83
2022/12/07 10:51:18;;;;;;;10.93;1.80;;;5.30;99.90;;;;;;6210961;23;20463;-83
2022/12/07 10:54:03;;;;;;;10.25;1.63;;;5.30;99.90;;;;;;6212319;23;20135;-83
2022/12/07 10:56:52;;;;;;;9.38;1.58;;;5.40;99.90;;;;;;6212613;23;20087;-83
2022/12/07 10:59:26;;;;;;;7.60;1.33;;;5.40;99.90;;;;;;6211459;23;20024;-83
2022/12/07 11:02:21;;;;;;;12.18;1.40;;;5.40;99.90;;;;;;6212372;23;20032;-83
2022/12/07 11:05:10;;;;;;;8.85;0.90;;;5.40;99.90;;;;;;6210758;23;20024;-84
2022/12/07 11:07:51;;;;;;;11.68;1.38;;;5.30;99.90;;;;;;6238020;23;20476;-82
2022/12/07 11:10:29;;;;;;;11.82;1.55;;;6.10;99.90;;;;;;6211624;23;20082;-83
2022/12/07 11:13:19;;;;;;;9.90;1.40;;;5.10;99.90;;;;;;6210917;23;20070;-83
2022/12/07 11:15:44;;;;;;;11.05;0.90;;;5.00;99.90;;;;;;6211921;23;20024;-83
2022/12/07 11:18:29;;;;;;;10.43;1.05;;;5.00;99.90;;;;;;6187152;23;20507;-83
2022/12/07 11:21:06;;;;;;;9.35;1.25;;;4.90;99.90;;;;;;6210164;23;20020;-83
2022/12/07 11:24:03;;;;;;;6.40;0.88;;;5.10;99.90;;;;;;6212520;23;20094;-84
2022/12/07 11:26:55;;;;;;;5.35;0.90;;;4.90;99.90;;;;;;6237180;23;20333;-84
2022/12/07 11:29:39;;;;;;;9.55;1.10;;;4.90;99.90;;;;;;6186841;23;20012;-84
2022/12/07 11:32:12;;;;;;;8.55;1.48;;;5.10;99.90;;;;;;6211741;23;20478;-84
2022/12/07 11:34:55;;;;;;;5.68;0.85;;;4.80;99.90;;;;;;6210312;23;20143;-82
2022/12/07 11:37:28;;;;;;;8.32;1.05;;;5.00;99.90;;;;;;6212216;23;20157;-83
2022/12/07 11:40:00;;;;;;;5.72;1.10;;;5.60;99.90;;;;;;6211229;23;20095;-83
2022/12/07 11:42:30;;;;;;;14.55;1.50;;;5.50;99.90;;;;;;6211728;23;20024;-84
2022/12/07 11:45:10;;;;;;;9.77;1.02;;;5.00;99.90;;;;;;6210969;23;20023;-83
2022/12/07 11:48:00;;;;;;;7.82;1.33;;;5.10;99.90;;;;;;6211579;23;20028;-84
2022/12/07 11:50:37;;;;;;;8.88;1.38;;;5.20;99.90;;;;;;6186154;23;20020;-83
2022/12/07 11:53:15;;;;;;;9.85;1.45;;;5.30;99.90;;;;;;6210909;23;20055;-83
2022/12/07 11:55:45;;;;;;;15.00;1.60;;;5.40;99.90;;;;;;6210711;23;20376;-84
2022/12/07 11:58:40;;;;;;;11.57;1.60;;;5.50;99.90;;;;;;6212157;23;20527;-84
2022/12/07 12:01:31;;;;;;;12.52;1.45;;;5.40;99.90;;;;;;6210457;23;20095;-88
2022/12/07 12:04:02;;;;;;;9.63;1.08;;;5.40;99.90;;;;;;6185944;23;20031;-84
2022/12/07 12:06:28;;;;;;;8.68;2.13;;;5.30;99.90;;;;;;6210507;23;20051;-84
2022/12/07 12:09:04;;;;;;;9.45;0.93;;;6.40;99.90;;;;;;6210793;23;20023;-84
2022/12/07 12:11:45;;;;;;;13.55;1.17;;;5.30;99.90;;;;;;6211722;23;20008;-84
2022/12/07 12:14:12;;;;;;;9.73;1.30;;;5.20;99.90;;;;;;6186236;23;20086;-84
2022/12/07 12:16:52;;;;;;;9.88;2.35;;;5.20;99.90;;;;;;6211174;23;20551;-84
2022/12/07 12:19:26;;;;;;;4.97;0.90;;;5.10;99.90;;;;;;6210575;23;20020;-84
2022/12/07 12:22:01;;;;;;;11.88;1.23;;;5.90;99.90;;;;;;6211201;23;20087;-83
2022/12/07 12:24:31;;;;;;;13.20;1.58;;;5.10;99.90;;;;;;6210593;23;20567;-83
2022/12/07 12:27:05;;;;;;;7.70;1.25;;;5.00;99.90;;;;;;6211854;23;20048;-83
2022/12/07 12:29:38;;;;;;;8.23;1.10;;;5.70;99.90;;;;;;6211174;23;20020;-84
2022/12/07 12:32:14;;;;;;;11.77;1.50;;;5.90;99.90;;;;;;6210656;23;20087;-84
2022/12/07 12:34:58;;;;;;;8.77;1.35;;;5.00;99.90;;;;;;6211010;23;20027;-84
2022/12/07 12:37:33;;;;;;;8.20;1.20;;;5.50;99.90;;;;;;6211417;23;20023;-84
2022/12/07 12:40:14;;;;;;;11.20;1.73;;;5.10;99.90;;;;;;6211016;23;20032;-83
2022/12/07 12:42:50;;;;;;;11.38;1.25;;;5.40;99.90;;;;;;6187109;23;20019;-84
2022/12/07 12:45:27;;;;;;;11.15;1.23;;;5.10;99.90;;;;;;6184945;23;20414;-84
2022/12/07 12:48:01;;;;;;;11.65;2.08;;;5.60;99.90;;;;;;6210933;23;20016;-83
2022/12/07 12:50:30;;;;;;;8.00;1.00;;;5.20;99.90;;;;;;6211012;23;20154;-84
2022/12/07 12:53:02;;;;;;;16.35;1.70;;;5.30;99.90;;;;;;6210087;23;20176;-83
2022/12/07 12:55:43;;;;;;;10.07;1.05;;;5.30;99.90;;;;;;6211546;23;20023;-83
2022/12/07 12:58:18;;;;;;;9.88;1.20;;;5.30;99.90;;;;;;6210754;23;20016;-83
2022/12/07 13:00:46;;;;;;;8.38;0.90;;;5.50;99.90;;;;;;6211083;23;20107;-83
2022/12/07 13:03:27;;;;;;;8.63;0.95;;;5.20;99.90;;;;;;6210984;23;20012;-84
2022/12/07 13:06:18;;;;;;;11.30;1.73;;;5.30;99.90;;;;;;6210597;23;20022;-83
2022/12/07 13:08:44;;;;;;;9.27;1.50;;;5.20;99.90;;;;;;6186263;23;20024;-84